»·PEaware :: N515SL KPSP-KSEZ

N515SL :: KPSP-KSEZ

FLIGHT INFORMATION

Flight Status: Arrived
Operator: Privately registered:
United States
More flights under this callsign
Pilot: Doug L. (8712)
Aircraft: DASSAULT AVIATION FALCON 50
(FA50)
More flights by this aircraft type
Origin: KPSP Palm Springs Intl
United States
Destination: KSEZ Sedona
United States
More flights between these airports :: More routes between these airports
Route: CATH1 PSP PKE DRK
File this flight plan on PilotEdge
Remarks:
Altitude:
(Current/Filed)
39,000ft
Speed:
(Current/Filed)
462kts
Departed: 12-Aug-19 02:03 PM
Arrived: 12-Aug-19 02:48 PM
Distance/Time
Traveled:
242nm/0:45
Distance/Time
To Go:
Arrived

Flight Plot

Page will automatically refresh every two minutes.

Flight plan parsing failed; only flown route is shown


Map Options




Map Legend


Flown Route
Filed Route
Departure Airport
Arrival Airport
Navaid (VOR, NDB)
Fix

Horizontal Profiles

Position Reports

Time Latitude Longitude Heading Altitude Ground
Speed
12-Aug-19 13:48 33.825353 -116.509542 90 423ft 0kts
12-Aug-19 13:49 33.825353 -116.509542 90 423ft 0kts
12-Aug-19 13:50 33.825353 -116.509542 90 423ft 0kts
12-Aug-19 13:51 33.825353 -116.509542 90 423ft 0kts
12-Aug-19 13:52 33.825353 -116.509542 90 423ft 0kts
12-Aug-19 13:53 33.825353 -116.509542 90 423ft 0kts
12-Aug-19 13:54 33.825353 -116.509542 90 423ft 0kts
12-Aug-19 13:55 33.825353 -116.509542 90 423ft 0kts
12-Aug-19 13:56 33.825353 -116.509542 90 423ft 0kts
12-Aug-19 13:57 33.825353 -116.509542 90 423ft 0kts
12-Aug-19 13:58 33.825353 -116.509542 90 423ft 0kts
12-Aug-19 13:59 33.825347 -116.508495 90 421ft 12kts
12-Aug-19 14:00 33.822802 -116.503560 143 410ft 22kts
12-Aug-19 14:01 33.818531 -116.498698 86 398ft 16kts
12-Aug-19 14:02 33.835316 -116.512679 323 945ft 147kts
12-Aug-19 14:03 33.882469 -116.557716 321 3467ft 268kts
12-Aug-19 14:04 33.946750 -116.556355 58 7934ft 267kts
12-Aug-19 14:05 33.956841 -116.476192 82 11660ft 266kts
12-Aug-19 14:06 33.965106 -116.390744 83 14662ft 283kts
12-Aug-19 14:08 33.973539 -116.293978 84 17596ft 294kts
12-Aug-19 14:09 33.981972 -116.195857 84 20255ft 300kts
12-Aug-19 14:10 33.990513 -116.095502 84 22753ft 300kts
12-Aug-19 14:11 33.998816 -115.996997 84 25199ft 292kts
12-Aug-19 14:12 34.007179 -115.896777 84 26735ft 309kts
12-Aug-19 14:13 34.015847 -115.791804 84 28251ft 321kts
12-Aug-19 14:14 34.024688 -115.683601 84 29758ft 327kts
12-Aug-19 14:15 34.033546 -115.574003 84 31253ft 328kts
12-Aug-19 14:16 34.042299 -115.464469 84 32493ft 332kts
12-Aug-19 14:17 34.051104 -115.352998 84 33497ft 338kts
12-Aug-19 14:18 34.059918 -115.240188 84 34491ft 342kts
12-Aug-19 14:19 34.068761 -115.125572 84 35488ft 344kts
12-Aug-19 14:20 34.077460 -115.011395 84 36473ft 342kts
12-Aug-19 14:21 34.086024 -114.897571 84 37453ft 337kts
12-Aug-19 14:22 34.094435 -114.784387 84 38064ft 343kts
12-Aug-19 14:23 34.106303 -114.669127 74 38580ft 350kts
12-Aug-19 14:24 34.137394 -114.556519 70 39010ft 360kts
12-Aug-19 14:25 34.170482 -114.439137 70 39005ft 378kts
12-Aug-19 14:25 34.198145 -114.340597 71 39004ft 392kts
12-Aug-19 14:27 34.240031 -114.190716 71 39003ft 410kts
12-Aug-19 14:28 34.277164 -114.057172 71 39007ft 432kts
12-Aug-19 14:28 34.309813 -113.939275 71 39005ft 453kts
12-Aug-19 14:30 34.356721 -113.769011 71 39000ft 459kts
12-Aug-19 14:31 34.396990 -113.622006 71 38571ft 465kts
12-Aug-19 14:31 34.431332 -113.496002 71 36938ft 478kts
12-Aug-19 14:33 34.479106 -113.319767 72 34394ft 467kts
12-Aug-19 14:33 34.511969 -113.197860 72 32114ft 468kts
12-Aug-19 14:34 34.552105 -113.048233 72 29120ft 465kts
12-Aug-19 14:35 34.591056 -112.902241 72 26121ft 446kts
12-Aug-19 14:36 34.628385 -112.761580 72 23112ft 430kts
12-Aug-19 14:37 34.664410 -112.625137 72 20104ft 422kts
12-Aug-19 14:38 34.699935 -112.489869 72 17113ft 420kts
12-Aug-19 14:39 34.716984 -112.353139 90 14099ft 400kts
12-Aug-19 14:40 34.716294 -112.222516 90 11548ft 369kts
12-Aug-19 14:41 34.715740 -112.105291 90 9725ft 323kts
12-Aug-19 14:42 34.715332 -112.008556 90 9041ft 258kts
12-Aug-19 14:43 34.731833 -111.932935 43 8004ft 235kts
12-Aug-19 14:44 34.778068 -111.876253 45 6619ft 234kts
12-Aug-19 14:45 34.815164 -111.830005 45 5564ft 136kts
12-Aug-19 14:46 34.839093 -111.800315 45 4880ft 119kts
12-Aug-19 14:47 34.851447 -111.785353 324 4823ft 16kts
12-Aug-19 14:48 34.849581 -111.789043 14 4801ft 3kts
12-Aug-19 14:49 34.849698 -111.788743 250 4804ft 0kts
12-Aug-19 14:50 34.849698 -111.788743 250 4804ft 0kts

Navigation Log

Ident Type
Flight plan parsing failed, navigation log unavailable